sensor_id;sensor_type;location;lat;lon;timestamp;P1;durP1;ratioP1;P2;durP2;ratioP2
83715;SDS011;73698;51.138;6.950;2024-03-06T00:02:15;30.00;;;14.32;;
83715;SDS011;73698;51.138;6.950;2024-03-06T00:04:41;26.13;;;12.70;;
83715;SDS011;73698;51.138;6.950;2024-03-06T00:07:07;30.27;;;12.98;;
83715;SDS011;73698;51.138;6.950;2024-03-06T00:09:32;27.20;;;13.57;;
83715;SDS011;73698;51.138;6.950;2024-03-06T00:11:58;23.40;;;13.18;;
83715;SDS011;73698;51.138;6.950;2024-03-06T00:14:25;28.20;;;13.30;;
83715;SDS011;73698;51.138;6.950;2024-03-06T00:16:50;23.23;;;12.73;;
83715;SDS011;73698;51.138;6.950;2024-03-06T00:19:16;23.83;;;12.63;;
83715;SDS011;73698;51.138;6.950;2024-03-06T00:21:42;22.95;;;11.18;;
83715;SDS011;73698;51.138;6.950;2024-03-06T00:24:07;26.30;;;11.70;;
83715;SDS011;73698;51.138;6.950;2024-03-06T00:26:33;21.55;;;10.55;;
83715;SDS011;73698;51.138;6.950;2024-03-06T00:28:59;23.17;;;12.75;;
83715;SDS011;73698;51.138;6.950;2024-03-06T00:31:24;22.98;;;10.40;;
83715;SDS011;73698;51.138;6.950;2024-03-06T00:33:50;18.60;;;9.85;;
83715;SDS011;73698;51.138;6.950;2024-03-06T00:36:15;30.45;;;12.13;;
83715;SDS011;73698;51.138;6.950;2024-03-06T00:38:40;27.70;;;11.77;;
83715;SDS011;73698;51.138;6.950;2024-03-06T00:41:06;26.65;;;12.35;;
83715;SDS011;73698;51.138;6.950;2024-03-06T00:43:31;32.00;;;13.13;;
83715;SDS011;73698;51.138;6.950;2024-03-06T00:45:57;28.70;;;12.43;;
83715;SDS011;73698;51.138;6.950;2024-03-06T00:48:22;27.35;;;11.68;;
83715;SDS011;73698;51.138;6.950;2024-03-06T00:50:47;25.45;;;12.52;;
83715;SDS011;73698;51.138;6.950;2024-03-06T00:53:13;27.17;;;11.50;;
83715;SDS011;73698;51.138;6.950;2024-03-06T00:55:38;25.58;;;11.98;;
83715;SDS011;73698;51.138;6.950;2024-03-06T00:58:05;22.75;;;11.27;;
83715;SDS011;73698;51.138;6.950;2024-03-06T01:00:31;20.13;;;11.23;;
83715;SDS011;73698;51.138;6.950;2024-03-06T01:02:57;22.17;;;11.90;;
83715;SDS011;73698;51.138;6.950;2024-03-06T01:05:22;25.85;;;11.50;;
83715;SDS011;73698;51.138;6.950;2024-03-06T01:07:48;21.75;;;10.55;;
83715;SDS011;73698;51.138;6.950;2024-03-06T01:10:13;27.70;;;12.65;;
83715;SDS011;73698;51.138;6.950;2024-03-06T01:12:39;21.15;;;11.52;;
83715;SDS011;73698;51.138;6.950;2024-03-06T01:15:04;25.30;;;12.32;;
83715;SDS011;73698;51.138;6.950;2024-03-06T01:17:30;30.15;;;12.32;;
83715;SDS011;73698;51.138;6.950;2024-03-06T01:19:55;22.02;;;10.70;;
83715;SDS011;73698;51.138;6.950;2024-03-06T01:22:21;25.55;;;12.63;;
83715;SDS011;73698;51.138;6.950;2024-03-06T01:24:46;25.50;;;11.70;;
83715;SDS011;73698;51.138;6.950;2024-03-06T01:27:15;26.48;;;12.48;;
83715;SDS011;73698;51.138;6.950;2024-03-06T01:29:41;30.92;;;13.80;;
83715;SDS011;73698;51.138;6.950;2024-03-06T01:32:07;27.80;;;12.23;;
83715;SDS011;73698;51.138;6.950;2024-03-06T01:34:32;25.80;;;12.65;;
83715;SDS011;73698;51.138;6.950;2024-03-06T01:36:58;28.17;;;12.15;;
83715;SDS011;73698;51.138;6.950;2024-03-06T01:39:23;29.77;;;13.65;;
83715;SDS011;73698;51.138;6.950;2024-03-06T01:41:49;25.65;;;12.57;;
83715;SDS011;73698;51.138;6.950;2024-03-06T01:44:16;31.30;;;13.85;;
83715;SDS011;73698;51.138;6.950;2024-03-06T01:46:43;27.52;;;12.80;;
83715;SDS011;73698;51.138;6.950;2024-03-06T01:49:12;24.67;;;12.35;;
83715;SDS011;73698;51.138;6.950;2024-03-06T01:51:42;30.38;;;12.30;;
83715;SDS011;73698;51.138;6.950;2024-03-06T01:54:13;26.55;;;12.38;;
83715;SDS011;73698;51.138;6.950;2024-03-06T01:56:39;29.65;;;13.32;;
83715;SDS011;73698;51.138;6.950;2024-03-06T01:59:10;28.40;;;12.95;;
83715;SDS011;73698;51.138;6.950;2024-03-06T02:01:38;25.25;;;11.18;;
83715;SDS011;73698;51.138;6.950;2024-03-06T02:04:05;32.30;;;12.80;;
83715;SDS011;73698;51.138;6.950;2024-03-06T02:06:31;22.85;;;11.45;;
83715;SDS011;73698;51.138;6.950;2024-03-06T02:08:57;26.23;;;13.23;;
83715;SDS011;73698;51.138;6.950;2024-03-06T02:11:22;27.60;;;11.65;;
83715;SDS011;73698;51.138;6.950;2024-03-06T02:13:49;26.95;;;12.98;;
83715;SDS011;73698;51.138;6.950;2024-03-06T02:16:15;24.92;;;12.57;;
83715;SDS011;73698;51.138;6.950;2024-03-06T02:18:50;26.92;;;12.35;;
83715;SDS011;73698;51.138;6.950;2024-03-06T02:21:17;26.75;;;12.35;;
83715;SDS011;73698;51.138;6.950;2024-03-06T02:23:42;30.50;;;14.02;;
83715;SDS011;73698;51.138;6.950;2024-03-06T02:26:08;26.42;;;11.70;;
83715;SDS011;73698;51.138;6.950;2024-03-06T02:28:33;30.08;;;14.90;;
83715;SDS011;73698;51.138;6.950;2024-03-06T02:30:59;26.48;;;12.85;;
83715;SDS011;73698;51.138;6.950;2024-03-06T02:33:25;34.70;;;15.57;;
83715;SDS011;73698;51.138;6.950;2024-03-06T02:35:50;30.35;;;13.55;;
83715;SDS011;73698;51.138;6.950;2024-03-06T02:38:16;36.05;;;15.15;;
83715;SDS011;73698;51.138;6.950;2024-03-06T02:40:42;33.72;;;14.30;;
83715;SDS011;73698;51.138;6.950;2024-03-06T02:43:09;37.05;;;13.88;;
83715;SDS011;73698;51.138;6.950;2024-03-06T02:45:34;31.23;;;14.48;;
83715;SDS011;73698;51.138;6.950;2024-03-06T02:47:59;35.08;;;14.60;;
83715;SDS011;73698;51.138;6.950;2024-03-06T02:50:25;34.72;;;15.52;;
83715;SDS011;73698;51.138;6.950;2024-03-06T02:52:50;30.20;;;12.35;;
83715;SDS011;73698;51.138;6.950;2024-03-06T02:55:16;35.95;;;14.77;;
83715;SDS011;73698;51.138;6.950;2024-03-06T02:57:42;38.50;;;16.17;;
83715;SDS011;73698;51.138;6.950;2024-03-06T03:00:07;36.08;;;14.13;;
83715;SDS011;73698;51.138;6.950;2024-03-06T03:02:38;37.40;;;14.47;;
83715;SDS011;73698;51.138;6.950;2024-03-06T03:05:04;34.85;;;15.50;;
83715;SDS011;73698;51.138;6.950;2024-03-06T03:07:30;32.42;;;14.18;;
83715;SDS011;73698;51.138;6.950;2024-03-06T03:09:55;28.75;;;14.00;;
83715;SDS011;73698;51.138;6.950;2024-03-06T03:12:21;37.78;;;14.48;;
83715;SDS011;73698;51.138;6.950;2024-03-06T03:14:46;34.22;;;15.13;;
83715;SDS011;73698;51.138;6.950;2024-03-06T03:17:11;36.05;;;14.02;;
83715;SDS011;73698;51.138;6.950;2024-03-06T03:19:37;36.25;;;14.98;;
83715;SDS011;73698;51.138;6.950;2024-03-06T03:22:05;42.30;;;15.57;;
83715;SDS011;73698;51.138;6.950;2024-03-06T03:24:30;40.60;;;15.43;;
83715;SDS011;73698;51.138;6.950;2024-03-06T03:26:56;34.15;;;14.73;;
83715;SDS011;73698;51.138;6.950;2024-03-06T03:29:21;39.65;;;16.13;;
83715;SDS011;73698;51.138;6.950;2024-03-06T03:31:47;41.03;;;17.33;;
83715;SDS011;73698;51.138;6.950;2024-03-06T03:34:13;39.25;;;16.27;;
83715;SDS011;73698;51.138;6.950;2024-03-06T03:36:42;36.10;;;13.02;;
83715;SDS011;73698;51.138;6.950;2024-03-06T03:39:07;35.30;;;16.30;;
83715;SDS011;73698;51.138;6.950;2024-03-06T03:41:43;30.10;;;15.48;;
83715;SDS011;73698;51.138;6.950;2024-03-06T03:44:10;34.63;;;13.73;;
83715;SDS011;73698;51.138;6.950;2024-03-06T03:46:39;40.70;;;16.75;;
83715;SDS011;73698;51.138;6.950;2024-03-06T03:49:05;39.30;;;16.27;;
83715;SDS011;73698;51.138;6.950;2024-03-06T03:51:30;44.42;;;16.35;;
83715;SDS011;73698;51.138;6.950;2024-03-06T03:53:55;38.13;;;16.98;;
83715;SDS011;73698;51.138;6.950;2024-03-06T03:56:21;41.58;;;16.13;;
83715;SDS011;73698;51.138;6.950;2024-03-06T03:58:47;36.17;;;15.80;;
83715;SDS011;73698;51.138;6.950;2024-03-06T04:01:12;39.85;;;17.92;;
83715;SDS011;73698;51.138;6.950;2024-03-06T04:03:38;37.33;;;16.77;;
83715;SDS011;73698;51.138;6.950;2024-03-06T04:06:03;41.83;;;17.13;;
83715;SDS011;73698;51.138;6.950;2024-03-06T04:08:29;33.92;;;14.95;;
83715;SDS011;73698;51.138;6.950;2024-03-06T04:10:54;37.25;;;16.08;;
83715;SDS011;73698;51.138;6.950;2024-03-06T04:13:20;38.10;;;15.98;;
83715;SDS011;73698;51.138;6.950;2024-03-06T04:15:46;41.38;;;17.13;;
83715;SDS011;73698;51.138;6.950;2024-03-06T04:18:11;42.70;;;16.10;;
83715;SDS011;73698;51.138;6.950;2024-03-06T04:20:37;39.80;;;17.38;;
83715;SDS011;73698;51.138;6.950;2024-03-06T04:23:02;38.65;;;14.90;;
83715;SDS011;73698;51.138;6.950;2024-03-06T04:25:28;39.85;;;15.65;;
83715;SDS011;73698;51.138;6.950;2024-03-06T04:27:54;35.58;;;16.25;;
83715;SDS011;73698;51.138;6.950;2024-03-06T04:30:19;35.00;;;14.88;;
83715;SDS011;73698;51.138;6.950;2024-03-06T04:32:46;34.42;;;14.55;;
83715;SDS011;73698;51.138;6.950;2024-03-06T04:35:11;39.08;;;15.40;;
83715;SDS011;73698;51.138;6.950;2024-03-06T04:37:36;36.15;;;15.38;;
83715;SDS011;73698;51.138;6.950;2024-03-06T04:40:03;35.97;;;15.80;;
83715;SDS011;73698;51.138;6.950;2024-03-06T04:42:32;46.45;;;17.00;;
83715;SDS011;73698;51.138;6.950;2024-03-06T04:45:00;34.78;;;15.50;;
83715;SDS011;73698;51.138;6.950;2024-03-06T04:47:26;38.90;;;14.68;;
83715;SDS011;73698;51.138;6.950;2024-03-06T04:49:51;30.75;;;13.65;;
83715;SDS011;73698;51.138;6.950;2024-03-06T04:52:19;33.53;;;13.73;;
83715;SDS011;73698;51.138;6.950;2024-03-06T04:54:44;36.25;;;14.55;;
83715;SDS011;73698;51.138;6.950;2024-03-06T04:57:10;35.15;;;14.25;;
83715;SDS011;73698;51.138;6.950;2024-03-06T04:59:35;31.75;;;13.95;;
83715;SDS011;73698;51.138;6.950;2024-03-06T05:02:01;33.28;;;14.43;;
83715;SDS011;73698;51.138;6.950;2024-03-06T05:04:28;37.28;;;15.45;;
83715;SDS011;73698;51.138;6.950;2024-03-06T05:06:54;39.22;;;16.05;;
83715;SDS011;73698;51.138;6.950;2024-03-06T05:09:19;35.15;;;14.85;;
83715;SDS011;73698;51.138;6.950;2024-03-06T05:11:44;31.75;;;14.77;;
83715;SDS011;73698;51.138;6.950;2024-03-06T05:14:10;35.17;;;16.50;;
83715;SDS011;73698;51.138;6.950;2024-03-06T05:16:35;38.80;;;16.00;;
83715;SDS011;73698;51.138;6.950;2024-03-06T05:19:00;31.40;;;14.20;;
83715;SDS011;73698;51.138;6.950;2024-03-06T05:21:26;39.97;;;16.50;;
83715;SDS011;73698;51.138;6.950;2024-03-06T05:23:52;39.70;;;17.63;;
83715;SDS011;73698;51.138;6.950;2024-03-06T05:26:17;38.03;;;16.60;;
83715;SDS011;73698;51.138;6.950;2024-03-06T05:28:43;39.22;;;15.95;;
83715;SDS011;73698;51.138;6.950;2024-03-06T05:31:18;37.58;;;15.50;;
83715;SDS011;73698;51.138;6.950;2024-03-06T05:33:48;37.58;;;16.15;;
83715;SDS011;73698;51.138;6.950;2024-03-06T05:36:17;38.35;;;14.63;;
83715;SDS011;73698;51.138;6.950;2024-03-06T05:38:43;43.03;;;17.02;;
83715;SDS011;73698;51.138;6.950;2024-03-06T05:41:10;36.35;;;16.63;;
83715;SDS011;73698;51.138;6.950;2024-03-06T05:43:35;41.78;;;17.02;;
83715;SDS011;73698;51.138;6.950;2024-03-06T05:46:01;42.83;;;18.48;;
83715;SDS011;73698;51.138;6.950;2024-03-06T05:48:26;36.63;;;16.23;;
83715;SDS011;73698;51.138;6.950;2024-03-06T05:50:52;33.72;;;14.25;;
83715;SDS011;73698;51.138;6.950;2024-03-06T05:53:20;43.50;;;15.98;;
83715;SDS011;73698;51.138;6.950;2024-03-06T05:55:45;35.13;;;14.60;;
83715;SDS011;73698;51.138;6.950;2024-03-06T05:58:11;43.38;;;15.55;;
83715;SDS011;73698;51.138;6.950;2024-03-06T06:00:36;40.88;;;15.95;;
83715;SDS011;73698;51.138;6.950;2024-03-06T06:03:03;43.03;;;17.05;;
83715;SDS011;73698;51.138;6.950;2024-03-06T06:05:28;37.35;;;15.68;;
83715;SDS011;73698;51.138;6.950;2024-03-06T06:07:53;42.15;;;16.95;;
83715;SDS011;73698;51.138;6.950;2024-03-06T06:10:19;46.35;;;18.45;;
83715;SDS011;73698;51.138;6.950;2024-03-06T06:12:45;41.75;;;17.95;;
83715;SDS011;73698;51.138;6.950;2024-03-06T06:15:10;41.10;;;16.48;;
83715;SDS011;73698;51.138;6.950;2024-03-06T06:17:36;44.00;;;17.17;;
83715;SDS011;73698;51.138;6.950;2024-03-06T06:20:03;42.80;;;17.77;;
83715;SDS011;73698;51.138;6.950;2024-03-06T06:22:34;39.47;;;15.45;;
83715;SDS011;73698;51.138;6.950;2024-03-06T06:25:01;44.72;;;15.93;;
83715;SDS011;73698;51.138;6.950;2024-03-06T06:27:28;38.72;;;15.32;;
83715;SDS011;73698;51.138;6.950;2024-03-06T06:29:54;40.55;;;16.75;;
83715;SDS011;73698;51.138;6.950;2024-03-06T06:32:20;44.60;;;16.45;;
83715;SDS011;73698;51.138;6.950;2024-03-06T06:34:46;37.55;;;15.85;;
83715;SDS011;73698;51.138;6.950;2024-03-06T06:37:11;45.42;;;17.70;;
83715;SDS011;73698;51.138;6.950;2024-03-06T06:39:37;44.80;;;17.98;;
83715;SDS011;73698;51.138;6.950;2024-03-06T06:42:02;33.25;;;14.65;;
83715;SDS011;73698;51.138;6.950;2024-03-06T06:44:28;43.08;;;16.33;;
83715;SDS011;73698;51.138;6.950;2024-03-06T06:46:53;41.72;;;17.48;;
83715;SDS011;73698;51.138;6.950;2024-03-06T06:49:19;48.90;;;17.75;;
83715;SDS011;73698;51.138;6.950;2024-03-06T06:51:45;42.22;;;16.95;;
83715;SDS011;73698;51.138;6.950;2024-03-06T06:54:10;42.28;;;18.23;;
83715;SDS011;73698;51.138;6.950;2024-03-06T06:56:36;39.50;;;15.73;;
83715;SDS011;73698;51.138;6.950;2024-03-06T06:59:01;36.80;;;16.25;;
83715;SDS011;73698;51.138;6.950;2024-03-06T07:01:27;36.10;;;15.48;;
83715;SDS011;73698;51.138;6.950;2024-03-06T07:03:52;41.55;;;16.35;;
83715;SDS011;73698;51.138;6.950;2024-03-06T07:06:18;41.45;;;17.02;;
83715;SDS011;73698;51.138;6.950;2024-03-06T07:08:43;41.38;;;15.68;;
83715;SDS011;73698;51.138;6.950;2024-03-06T07:11:08;41.35;;;17.55;;
83715;SDS011;73698;51.138;6.950;2024-03-06T07:13:36;44.38;;;16.08;;
83715;SDS011;73698;51.138;6.950;2024-03-06T07:16:02;41.50;;;15.38;;
83715;SDS011;73698;51.138;6.950;2024-03-06T07:18:29;40.78;;;15.90;;
83715;SDS011;73698;51.138;6.950;2024-03-06T07:20:54;42.85;;;17.77;;
83715;SDS011;73698;51.138;6.950;2024-03-06T07:23:20;43.65;;;16.80;;
83715;SDS011;73698;51.138;6.950;2024-03-06T07:25:45;41.83;;;17.67;;
83715;SDS011;73698;51.138;6.950;2024-03-06T07:28:11;39.15;;;16.40;;
83715;SDS011;73698;51.138;6.950;2024-03-06T07:30:36;41.58;;;17.88;;
83715;SDS011;73698;51.138;6.950;2024-03-06T07:33:01;38.45;;;15.38;;
83715;SDS011;73698;51.138;6.950;2024-03-06T07:35:27;36.25;;;17.02;;
83715;SDS011;73698;51.138;6.950;2024-03-06T07:37:52;41.55;;;16.75;;
83715;SDS011;73698;51.138;6.950;2024-03-06T07:40:18;40.80;;;16.05;;
83715;SDS011;73698;51.138;6.950;2024-03-06T07:42:43;44.63;;;16.65;;
83715;SDS011;73698;51.138;6.950;2024-03-06T07:45:08;41.53;;;17.15;;
83715;SDS011;73698;51.138;6.950;2024-03-06T07:47:34;43.65;;;17.88;;
83715;SDS011;73698;51.138;6.950;2024-03-06T07:49:59;39.75;;;17.00;;
83715;SDS011;73698;51.138;6.950;2024-03-06T07:52:25;41.92;;;17.73;;
83715;SDS011;73698;51.138;6.950;2024-03-06T07:54:50;43.92;;;17.08;;
83715;SDS011;73698;51.138;6.950;2024-03-06T07:57:16;43.13;;;17.73;;
83715;SDS011;73698;51.138;6.950;2024-03-06T07:59:43;39.90;;;16.80;;
83715;SDS011;73698;51.138;6.950;2024-03-06T08:02:08;51.25;;;19.38;;
83715;SDS011;73698;51.138;6.950;2024-03-06T08:04:33;44.35;;;17.77;;
83715;SDS011;73698;51.138;6.950;2024-03-06T08:07:01;46.22;;;17.85;;
83715;SDS011;73698;51.138;6.950;2024-03-06T08:09:26;46.45;;;17.58;;
83715;SDS011;73698;51.138;6.950;2024-03-06T08:11:53;41.80;;;17.48;;
83715;SDS011;73698;51.138;6.950;2024-03-06T08:14:19;53.40;;;18.27;;
83715;SDS011;73698;51.138;6.950;2024-03-06T08:16:45;60.42;;;23.42;;
83715;SDS011;73698;51.138;6.950;2024-03-06T08:19:10;64.28;;;22.13;;
83715;SDS011;73698;51.138;6.950;2024-03-06T08:21:36;62.08;;;21.50;;
83715;SDS011;73698;51.138;6.950;2024-03-06T08:24:03;59.42;;;20.75;;
83715;SDS011;73698;51.138;6.950;2024-03-06T08:26:29;58.42;;;20.88;;
83715;SDS011;73698;51.138;6.950;2024-03-06T08:28:54;56.13;;;20.75;;
83715;SDS011;73698;51.138;6.950;2024-03-06T08:31:19;55.75;;;19.95;;
83715;SDS011;73698;51.138;6.950;2024-03-06T08:33:46;51.63;;;19.92;;
83715;SDS011;73698;51.138;6.950;2024-03-06T08:36:12;58.35;;;19.77;;
83715;SDS011;73698;51.138;6.950;2024-03-06T08:38:38;55.80;;;20.20;;
83715;SDS011;73698;51.138;6.950;2024-03-06T08:41:05;58.35;;;21.58;;
83715;SDS011;73698;51.138;6.950;2024-03-06T08:43:31;50.38;;;19.90;;
83715;SDS011;73698;51.138;6.950;2024-03-06T08:45:57;57.50;;;20.83;;
83715;SDS011;73698;51.138;6.950;2024-03-06T08:48:22;55.78;;;20.83;;
83715;SDS011;73698;51.138;6.950;2024-03-06T08:50:47;56.53;;;19.60;;
83715;SDS011;73698;51.138;6.950;2024-03-06T08:53:13;59.80;;;23.02;;
83715;SDS011;73698;51.138;6.950;2024-03-06T08:55:39;64.35;;;22.45;;
83715;SDS011;73698;51.138;6.950;2024-03-06T08:58:04;58.05;;;19.63;;
83715;SDS011;73698;51.138;6.950;2024-03-06T09:00:29;51.50;;;19.67;;
83715;SDS011;73698;51.138;6.950;2024-03-06T09:02:55;50.40;;;19.25;;
83715;SDS011;73698;51.138;6.950;2024-03-06T09:05:20;51.72;;;18.92;;
83715;SDS011;73698;51.138;6.950;2024-03-06T09:07:47;56.47;;;19.15;;
83715;SDS011;73698;51.138;6.950;2024-03-06T09:10:12;58.63;;;19.15;;
83715;SDS011;73698;51.138;6.950;2024-03-06T09:12:38;54.90;;;19.20;;
83715;SDS011;73698;51.138;6.950;2024-03-06T09:15:04;54.72;;;20.13;;
83715;SDS011;73698;51.138;6.950;2024-03-06T09:17:32;55.15;;;20.00;;
83715;SDS011;73698;51.138;6.950;2024-03-06T09:19:58;49.63;;;18.92;;
83715;SDS011;73698;51.138;6.950;2024-03-06T09:22:23;54.03;;;19.80;;
83715;SDS011;73698;51.138;6.950;2024-03-06T09:24:49;53.65;;;19.77;;
83715;SDS011;73698;51.138;6.950;2024-03-06T09:27:17;53.33;;;20.13;;
83715;SDS011;73698;51.138;6.950;2024-03-06T09:29:43;47.70;;;18.38;;
83715;SDS011;73698;51.138;6.950;2024-03-06T09:32:09;52.60;;;21.52;;
83715;SDS011;73698;51.138;6.950;2024-03-06T09:34:34;57.90;;;19.98;;
83715;SDS011;73698;51.138;6.950;2024-03-06T09:37:00;56.10;;;22.55;;
83715;SDS011;73698;51.138;6.950;2024-03-06T09:39:25;56.05;;;20.92;;
83715;SDS011;73698;51.138;6.950;2024-03-06T09:41:51;53.70;;;21.40;;
83715;SDS011;73698;51.138;6.950;2024-03-06T09:44:18;54.15;;;20.95;;
83715;SDS011;73698;51.138;6.950;2024-03-06T09:46:44;60.05;;;23.45;;
83715;SDS011;73698;51.138;6.950;2024-03-06T09:49:13;56.85;;;20.65;;
83715;SDS011;73698;51.138;6.950;2024-03-06T09:51:44;52.33;;;20.73;;
83715;SDS011;73698;51.138;6.950;2024-03-06T09:54:11;48.25;;;19.70;;
83715;SDS011;73698;51.138;6.950;2024-03-06T09:56:49;48.80;;;18.60;;
83715;SDS011;73698;51.138;6.950;2024-03-06T09:59:15;49.05;;;20.08;;
83715;SDS011;73698;51.138;6.950;2024-03-06T10:06:44;46.58;;;19.65;;
83715;SDS011;73698;51.138;6.950;2024-03-06T10:09:11;48.47;;;19.30;;
83715;SDS011;73698;51.138;6.950;2024-03-06T10:11:42;46.80;;;18.73;;
83715;SDS011;73698;51.138;6.950;2024-03-06T10:14:08;41.75;;;18.55;;
83715;SDS011;73698;51.138;6.950;2024-03-06T10:16:35;48.60;;;19.33;;
83715;SDS011;73698;51.138;6.950;2024-03-06T10:19:20;44.53;;;20.17;;
83715;SDS011;73698;51.138;6.950;2024-03-06T10:21:48;48.67;;;20.63;;
83715;SDS011;73698;51.138;6.950;2024-03-06T10:24:22;49.72;;;20.20;;
83715;SDS011;73698;51.138;6.950;2024-03-06T10:26:49;48.83;;;20.65;;
83715;SDS011;73698;51.138;6.950;2024-03-06T10:29:16;48.78;;;20.95;;
83715;SDS011;73698;51.138;6.950;2024-03-06T10:31:56;39.45;;;17.50;;
83715;SDS011;73698;51.138;6.950;2024-03-06T10:34:27;42.90;;;19.52;;
83715;SDS011;73698;51.138;6.950;2024-03-06T10:36:56;45.50;;;19.52;;
83715;SDS011;73698;51.138;6.950;2024-03-06T10:39:23;43.85;;;18.63;;
83715;SDS011;73698;51.138;6.950;2024-03-06T10:41:51;40.90;;;19.50;;
83715;SDS011;73698;51.138;6.950;2024-03-06T10:46:47;45.28;;;19.25;;
83715;SDS011;73698;51.138;6.950;2024-03-06T10:49:19;38.08;;;17.55;;
83715;SDS011;73698;51.138;6.950;2024-03-06T10:51:45;42.53;;;18.58;;
83715;SDS011;73698;51.138;6.950;2024-03-06T10:54:12;42.15;;;20.13;;
83715;SDS011;73698;51.138;6.950;2024-03-06T10:56:39;39.28;;;17.15;;
83715;SDS011;73698;51.138;6.950;2024-03-06T10:59:08;37.63;;;17.45;;
83715;SDS011;73698;51.138;6.950;2024-03-06T11:01:36;36.92;;;16.92;;
83715;SDS011;73698;51.138;6.950;2024-03-06T11:04:03;40.45;;;17.90;;
83715;SDS011;73698;51.138;6.950;2024-03-06T11:06:28;36.22;;;17.02;;
83715;SDS011;73698;51.138;6.950;2024-03-06T11:08:54;35.92;;;16.98;;
83715;SDS011;73698;51.138;6.950;2024-03-06T11:11:23;39.15;;;18.00;;
83715;SDS011;73698;51.138;6.950;2024-03-06T11:13:49;35.28;;;17.13;;
83715;SDS011;73698;51.138;6.950;2024-03-06T11:16:20;39.17;;;18.17;;
83715;SDS011;73698;51.138;6.950;2024-03-06T11:18:52;36.90;;;18.88;;
83715;SDS011;73698;51.138;6.950;2024-03-06T11:21:31;38.92;;;17.80;;
83715;SDS011;73698;51.138;6.950;2024-03-06T11:26:57;36.53;;;18.63;;
83715;SDS011;73698;51.138;6.950;2024-03-06T11:29:27;36.53;;;17.65;;
83715;SDS011;73698;51.138;6.950;2024-03-06T11:32:27;36.90;;;18.40;;
83715;SDS011;73698;51.138;6.950;2024-03-06T11:34:47;38.63;;;18.20;;
83715;SDS011;73698;51.138;6.950;2024-03-06T11:37:12;37.05;;;18.20;;
83715;SDS011;73698;51.138;6.950;2024-03-06T11:39:38;38.97;;;18.67;;
83715;SDS011;73698;51.138;6.950;2024-03-06T11:42:06;40.15;;;18.58;;
83715;SDS011;73698;51.138;6.950;2024-03-06T11:44:33;37.03;;;18.23;;
83715;SDS011;73698;51.138;6.950;2024-03-06T11:47:00;35.53;;;18.67;;
83715;SDS011;73698;51.138;6.950;2024-03-06T11:49:30;41.08;;;17.90;;
83715;SDS011;73698;51.138;6.950;2024-03-06T11:52:04;39.53;;;17.92;;
83715;SDS011;73698;51.138;6.950;2024-03-06T11:54:33;40.58;;;17.88;;
83715;SDS011;73698;51.138;6.950;2024-03-06T11:56:59;42.17;;;19.48;;
83715;SDS011;73698;51.138;6.950;2024-03-06T12:01:52;37.78;;;17.40;;
83715;SDS011;73698;51.138;6.950;2024-03-06T12:04:19;36.85;;;17.55;;
83715;SDS011;73698;51.138;6.950;2024-03-06T12:06:45;40.97;;;18.05;;
83715;SDS011;73698;51.138;6.950;2024-03-06T12:09:11;39.58;;;18.25;;
83715;SDS011;73698;51.138;6.950;2024-03-06T12:11:37;34.72;;;16.05;;
83715;SDS011;73698;51.138;6.950;2024-03-06T12:14:03;33.17;;;16.13;;
83715;SDS011;73698;51.138;6.950;2024-03-06T12:16:28;35.80;;;15.95;;
83715;SDS011;73698;51.138;6.950;2024-03-06T12:18:54;35.95;;;16.27;;
83715;SDS011;73698;51.138;6.950;2024-03-06T12:21:23;26.45;;;13.02;;
83715;SDS011;73698;51.138;6.950;2024-03-06T12:24:01;28.90;;;12.90;;
83715;SDS011;73698;51.138;6.950;2024-03-06T12:26:28;28.50;;;13.85;;
83715;SDS011;73698;51.138;6.950;2024-03-06T12:28:53;37.85;;;15.52;;
83715;SDS011;73698;51.138;6.950;2024-03-06T12:31:29;25.75;;;13.95;;
83715;SDS011;73698;51.138;6.950;2024-03-06T12:33:58;30.50;;;14.55;;
83715;SDS011;73698;51.138;6.950;2024-03-06T12:36:27;30.25;;;15.95;;
83715;SDS011;73698;51.138;6.950;2024-03-06T12:38:55;27.20;;;13.80;;
83715;SDS011;73698;51.138;6.950;2024-03-06T12:41:21;29.77;;;13.85;;
83715;SDS011;73698;51.138;6.950;2024-03-06T12:43:47;28.02;;;13.50;;
83715;SDS011;73698;51.138;6.950;2024-03-06T12:46:12;24.15;;;11.75;;
83715;SDS011;73698;51.138;6.950;2024-03-06T12:48:37;28.40;;;13.30;;
83715;SDS011;73698;51.138;6.950;2024-03-06T12:51:03;28.90;;;13.90;;
83715;SDS011;73698;51.138;6.950;2024-03-06T12:53:30;26.00;;;12.38;;
83715;SDS011;73698;51.138;6.950;2024-03-06T12:55:56;26.33;;;13.30;;
83715;SDS011;73698;51.138;6.950;2024-03-06T12:58:21;27.73;;;12.95;;
83715;SDS011;73698;51.138;6.950;2024-03-06T13:00:47;24.75;;;12.88;;
83715;SDS011;73698;51.138;6.950;2024-03-06T13:03:12;24.85;;;13.18;;
83715;SDS011;73698;51.138;6.950;2024-03-06T13:05:38;26.15;;;12.27;;
83715;SDS011;73698;51.138;6.950;2024-03-06T13:08:04;26.52;;;12.90;;
83715;SDS011;73698;51.138;6.950;2024-03-06T13:10:29;31.30;;;13.43;;
83715;SDS011;73698;51.138;6.950;2024-03-06T13:12:55;29.20;;;13.98;;
83715;SDS011;73698;51.138;6.950;2024-03-06T13:15:20;24.25;;;12.20;;
83715;SDS011;73698;51.138;6.950;2024-03-06T13:17:46;24.00;;;12.07;;
83715;SDS011;73698;51.138;6.950;2024-03-06T13:20:11;20.08;;;10.98;;
83715;SDS011;73698;51.138;6.950;2024-03-06T13:22:37;24.67;;;11.30;;
83715;SDS011;73698;51.138;6.950;2024-03-06T13:25:03;25.23;;;12.07;;
83715;SDS011;73698;51.138;6.950;2024-03-06T13:27:29;26.70;;;12.98;;
83715;SDS011;73698;51.138;6.950;2024-03-06T13:29:55;23.80;;;11.52;;
83715;SDS011;73698;51.138;6.950;2024-03-06T13:32:21;22.45;;;10.82;;
83715;SDS011;73698;51.138;6.950;2024-03-06T13:34:46;21.17;;;10.45;;
83715;SDS011;73698;51.138;6.950;2024-03-06T13:37:11;23.50;;;11.63;;
83715;SDS011;73698;51.138;6.950;2024-03-06T13:39:37;19.52;;;9.40;;
83715;SDS011;73698;51.138;6.950;2024-03-06T13:42:04;17.92;;;9.25;;
83715;SDS011;73698;51.138;6.950;2024-03-06T13:44:31;20.00;;;9.40;;
83715;SDS011;73698;51.138;6.950;2024-03-06T13:46:56;17.25;;;9.13;;
83715;SDS011;73698;51.138;6.950;2024-03-06T13:49:38;16.67;;;8.55;;
83715;SDS011;73698;51.138;6.950;2024-03-06T13:52:05;19.98;;;8.05;;
83715;SDS011;73698;51.138;6.950;2024-03-06T13:54:32;12.95;;;7.60;;
83715;SDS011;73698;51.138;6.950;2024-03-06T13:57:04;13.00;;;7.40;;
83715;SDS011;73698;51.138;6.950;2024-03-06T13:59:30;15.55;;;7.82;;
83715;SDS011;73698;51.138;6.950;2024-03-06T14:01:56;13.48;;;7.03;;
83715;SDS011;73698;51.138;6.950;2024-03-06T14:04:22;16.48;;;7.75;;
83715;SDS011;73698;51.138;6.950;2024-03-06T14:06:47;14.77;;;7.65;;
83715;SDS011;73698;51.138;6.950;2024-03-06T14:09:13;11.73;;;5.68;;
83715;SDS011;73698;51.138;6.950;2024-03-06T14:11:39;11.45;;;5.85;;
83715;SDS011;73698;51.138;6.950;2024-03-06T14:14:05;11.00;;;5.72;;
83715;SDS011;73698;51.138;6.950;2024-03-06T14:16:31;11.85;;;5.93;;
83715;SDS011;73698;51.138;6.950;2024-03-06T14:18:56;13.00;;;7.13;;
83715;SDS011;73698;51.138;6.950;2024-03-06T14:21:22;13.93;;;8.00;;
83715;SDS011;73698;51.138;6.950;2024-03-06T14:23:47;11.27;;;6.20;;
83715;SDS011;73698;51.138;6.950;2024-03-06T14:26:13;11.98;;;6.72;;
83715;SDS011;73698;51.138;6.950;2024-03-06T14:28:38;15.38;;;6.78;;
83715;SDS011;73698;51.138;6.950;2024-03-06T14:31:05;13.20;;;7.13;;
83715;SDS011;73698;51.138;6.950;2024-03-06T14:33:30;14.98;;;6.97;;